sensor_id;sensor_type;location;lat;lon;timestamp;temperature;humidity
21473;DHT22;10898;48.072;11.682;2022-08-02T00:00:56;19.10;99.90
21473;DHT22;10898;48.072;11.682;2022-08-02T00:02:58;19.10;99.90
21473;DHT22;10898;48.072;11.682;2022-08-02T00:04:59;19.20;99.90
21473;DHT22;10898;48.072;11.682;2022-08-02T00:07:01;19.10;99.90
21473;DHT22;10898;48.072;11.682;2022-08-02T00:09:03;19.20;99.90
21473;DHT22;10898;48.072;11.682;2022-08-02T00:11:05;19.10;99.90
21473;DHT22;10898;48.072;11.682;2022-08-02T00:13:07;19.10;99.90
21473;DHT22;10898;48.072;11.682;2022-08-02T00:15:09;19.10;99.90
21473;DHT22;10898;48.072;11.682;2022-08-02T00:17:16;19.10;99.90
21473;DHT22;10898;48.072;11.682;2022-08-02T00:19:18;19.10;99.90
21473;DHT22;10898;48.072;11.682;2022-08-02T00:21:20;19.10;99.90
21473;DHT22;10898;48.072;11.682;2022-08-02T00:23:22;19.10;99.90
21473;DHT22;10898;48.072;11.682;2022-08-02T00:25:23;19.10;99.90
21473;DHT22;10898;48.072;11.682;2022-08-02T00:27:25;19.10;99.90
21473;DHT22;10898;48.072;11.682;2022-08-02T00:29:27;19.10;99.90
21473;DHT22;10898;48.072;11.682;2022-08-02T00:31:29;19.10;99.90
21473;DHT22;10898;48.072;11.682;2022-08-02T00:33:30;19.10;99.90
21473;DHT22;10898;48.072;11.682;2022-08-02T00:35:52;19.10;99.90
21473;DHT22;10898;48.072;11.682;2022-08-02T00:37:54;19.00;99.90
21473;DHT22;10898;48.072;11.682;2022-08-02T00:39:56;19.00;99.90
21473;DHT22;10898;48.072;11.682;2022-08-02T00:41:58;19.00;99.90
21473;DHT22;10898;48.072;11.682;2022-08-02T00:43:59;19.00;99.90
21473;DHT22;10898;48.072;11.682;2022-08-02T00:46:01;18.90;99.90
21473;DHT22;10898;48.072;11.682;2022-08-02T00:48:05;18.90;99.90
21473;DHT22;10898;48.072;11.682;2022-08-02T00:50:07;18.80;99.90
21473;DHT22;10898;48.072;11.682;2022-08-02T00:52:09;18.80;99.90
21473;DHT22;10898;48.072;11.682;2022-08-02T00:54:11;18.70;99.90
21473;DHT22;10898;48.072;11.682;2022-08-02T00:56:13;18.70;99.90
21473;DHT22;10898;48.072;11.682;2022-08-02T00:58:15;18.70;99.90
21473;DHT22;10898;48.072;11.682;2022-08-02T01:00:17;18.70;99.90
21473;DHT22;10898;48.072;11.682;2022-08-02T01:02:18;18.60;99.90
21473;DHT22;10898;48.072;11.682;2022-08-02T01:04:20;18.80;99.90
21473;DHT22;10898;48.072;11.682;2022-08-02T01:06:32;18.80;99.90
21473;DHT22;10898;48.072;11.682;2022-08-02T01:08:34;18.80;99.90
21473;DHT22;10898;48.072;11.682;2022-08-02T01:10:36;18.80;99.90
21473;DHT22;10898;48.072;11.682;2022-08-02T01:12:38;18.80;99.90
21473;DHT22;10898;48.072;11.682;2022-08-02T01:14:40;18.80;99.90
21473;DHT22;10898;48.072;11.682;2022-08-02T01:16:45;18.80;99.90
21473;DHT22;10898;48.072;11.682;2022-08-02T01:18:50;18.80;99.90
21473;DHT22;10898;48.072;11.682;2022-08-02T01:25:49;18.80;99.90
21473;DHT22;10898;48.072;11.682;2022-08-02T01:30:00;18.80;99.90
21473;DHT22;10898;48.072;11.682;2022-08-02T01:34:05;18.80;99.90
21473;DHT22;10898;48.072;11.682;2022-08-02T01:36:09;18.80;99.90
21473;DHT22;10898;48.072;11.682;2022-08-02T01:38:47;18.80;99.90
21473;DHT22;10898;48.072;11.682;2022-08-02T01:40:41;18.70;99.90
21473;DHT22;10898;48.072;11.682;2022-08-02T01:42:46;18.70;99.90
21473;DHT22;10898;48.072;11.682;2022-08-02T01:44:49;18.70;99.90
21473;DHT22;10898;48.072;11.682;2022-08-02T01:46:51;18.70;99.90
21473;DHT22;10898;48.072;11.682;2022-08-02T01:48:54;18.70;99.90
21473;DHT22;10898;48.072;11.682;2022-08-02T01:50:57;18.70;99.90
21473;DHT22;10898;48.072;11.682;2022-08-02T01:53:02;18.70;99.90
21473;DHT22;10898;48.072;11.682;2022-08-02T01:57:19;18.60;99.90
21473;DHT22;10898;48.072;11.682;2022-08-02T01:59:22;18.60;99.90
21473;DHT22;10898;48.072;11.682;2022-08-02T02:01:24;18.60;99.90
21473;DHT22;10898;48.072;11.682;2022-08-02T02:03:27;18.60;99.90
21473;DHT22;10898;48.072;11.682;2022-08-02T02:05:30;18.60;99.90
21473;DHT22;10898;48.072;11.682;2022-08-02T02:07:35;18.50;99.90
21473;DHT22;10898;48.072;11.682;2022-08-02T02:09:37;18.50;99.90
21473;DHT22;10898;48.072;11.682;2022-08-02T02:11:51;18.50;99.90
21473;DHT22;10898;48.072;11.682;2022-08-02T02:14:13;18.50;99.90
21473;DHT22;10898;48.072;11.682;2022-08-02T02:16:15;18.40;99.90
21473;DHT22;10898;48.072;11.682;2022-08-02T02:18:20;18.40;99.90
21473;DHT22;10898;48.072;11.682;2022-08-02T02:20:23;18.40;99.90
21473;DHT22;10898;48.072;11.682;2022-08-02T02:22:26;18.40;99.90
21473;DHT22;10898;48.072;11.682;2022-08-02T02:24:28;18.40;99.90
21473;DHT22;10898;48.072;11.682;2022-08-02T02:26:30;18.30;99.90
21473;DHT22;10898;48.072;11.682;2022-08-02T02:28:33;18.30;99.90
21473;DHT22;10898;48.072;11.682;2022-08-02T02:30:36;18.30;99.90
21473;DHT22;10898;48.072;11.682;2022-08-02T02:32:39;18.30;99.90
21473;DHT22;10898;48.072;11.682;2022-08-02T02:34:42;18.20;99.90
21473;DHT22;10898;48.072;11.682;2022-08-02T02:36:45;18.20;99.90
21473;DHT22;10898;48.072;11.682;2022-08-02T02:38:48;18.20;99.90
21473;DHT22;10898;48.072;11.682;2022-08-02T02:40:51;18.20;99.90
21473;DHT22;10898;48.072;11.682;2022-08-02T02:42:53;18.20;99.90
21473;DHT22;10898;48.072;11.682;2022-08-02T02:44:57;18.20;99.90
21473;DHT22;10898;48.072;11.682;2022-08-02T02:46:59;18.20;99.90
21473;DHT22;10898;48.072;11.682;2022-08-02T02:49:02;18.20;99.90
21473;DHT22;10898;48.072;11.682;2022-08-02T02:51:04;18.20;99.90
21473;DHT22;10898;48.072;11.682;2022-08-02T02:53:15;18.20;99.90
21473;DHT22;10898;48.072;11.682;2022-08-02T02:55:17;18.10;99.90
21473;DHT22;10898;48.072;11.682;2022-08-02T02:57:19;18.20;99.90
21473;DHT22;10898;48.072;11.682;2022-08-02T02:59:22;18.20;99.90
21473;DHT22;10898;48.072;11.682;2022-08-02T03:01:23;18.10;99.90
21473;DHT22;10898;48.072;11.682;2022-08-02T03:03:48;18.20;99.90
21473;DHT22;10898;48.072;11.682;2022-08-02T03:05:50;18.10;99.90
21473;DHT22;10898;48.072;11.682;2022-08-02T03:07:52;18.10;99.90
21473;DHT22;10898;48.072;11.682;2022-08-02T03:09:54;18.20;99.90
21473;DHT22;10898;48.072;11.682;2022-08-02T03:11:56;18.20;99.90
21473;DHT22;10898;48.072;11.682;2022-08-02T03:13:58;18.20;99.90
21473;DHT22;10898;48.072;11.682;2022-08-02T03:16:01;18.20;99.90
21473;DHT22;10898;48.072;11.682;2022-08-02T03:18:03;18.20;99.90
21473;DHT22;10898;48.072;11.682;2022-08-02T03:20:07;18.20;99.90
21473;DHT22;10898;48.072;11.682;2022-08-02T03:22:09;18.20;99.90
21473;DHT22;10898;48.072;11.682;2022-08-02T03:24:12;18.20;99.90
21473;DHT22;10898;48.072;11.682;2022-08-02T03:26:13;18.20;99.90
21473;DHT22;10898;48.072;11.682;2022-08-02T03:28:15;18.10;99.90
21473;DHT22;10898;48.072;11.682;2022-08-02T03:30:17;18.20;99.90
21473;DHT22;10898;48.072;11.682;2022-08-02T03:32:19;18.10;99.90
21473;DHT22;10898;48.072;11.682;2022-08-02T03:34:21;18.20;99.90
21473;DHT22;10898;48.072;11.682;2022-08-02T03:36:24;18.20;99.90
21473;DHT22;10898;48.072;11.682;2022-08-02T03:38:26;18.20;99.90
21473;DHT22;10898;48.072;11.682;2022-08-02T03:40:29;18.10;99.90
21473;DHT22;10898;48.072;11.682;2022-08-02T03:42:31;18.20;99.90
21473;DHT22;10898;48.072;11.682;2022-08-02T03:44:33;18.20;99.90
21473;DHT22;10898;48.072;11.682;2022-08-02T03:46:36;18.10;99.90
21473;DHT22;10898;48.072;11.682;2022-08-02T03:48:40;18.10;99.90
21473;DHT22;10898;48.072;11.682;2022-08-02T03:50:42;18.10;99.90
21473;DHT22;10898;48.072;11.682;2022-08-02T03:52:46;18.10;99.90
21473;DHT22;10898;48.072;11.682;2022-08-02T03:54:48;18.10;99.90
21473;DHT22;10898;48.072;11.682;2022-08-02T03:56:49;18.10;99.90
21473;DHT22;10898;48.072;11.682;2022-08-02T03:59:03;18.00;99.90
21473;DHT22;10898;48.072;11.682;2022-08-02T04:01:05;18.00;99.90
21473;DHT22;10898;48.072;11.682;2022-08-02T04:03:07;18.00;99.90
21473;DHT22;10898;48.072;11.682;2022-08-02T04:05:11;18.00;99.90
21473;DHT22;10898;48.072;11.682;2022-08-02T04:07:13;18.00;99.90
21473;DHT22;10898;48.072;11.682;2022-08-02T04:09:35;18.00;99.90
21473;DHT22;10898;48.072;11.682;2022-08-02T04:11:36;18.00;99.90
21473;DHT22;10898;48.072;11.682;2022-08-02T04:13:38;18.00;99.90
21473;DHT22;10898;48.072;11.682;2022-08-02T04:15:40;18.00;99.90
21473;DHT22;10898;48.072;11.682;2022-08-02T04:17:43;18.00;99.90
21473;DHT22;10898;48.072;11.682;2022-08-02T04:19:47;18.00;99.90
21473;DHT22;10898;48.072;11.682;2022-08-02T04:21:50;18.00;99.90
21473;DHT22;10898;48.072;11.682;2022-08-02T04:23:53;18.00;99.90
21473;DHT22;10898;48.072;11.682;2022-08-02T04:25:58;18.10;99.90
21473;DHT22;10898;48.072;11.682;2022-08-02T04:28:00;18.10;99.90
21473;DHT22;10898;48.072;11.682;2022-08-02T04:30:18;18.10;99.90
21473;DHT22;10898;48.072;11.682;2022-08-02T04:32:20;18.10;99.90
21473;DHT22;10898;48.072;11.682;2022-08-02T04:34:22;18.10;99.90
21473;DHT22;10898;48.072;11.682;2022-08-02T04:36:24;18.20;99.90
21473;DHT22;10898;48.072;11.682;2022-08-02T04:38:32;18.20;99.90
21473;DHT22;10898;48.072;11.682;2022-08-02T04:40:34;18.20;99.90
21473;DHT22;10898;48.072;11.682;2022-08-02T04:42:36;18.20;99.90
21473;DHT22;10898;48.072;11.682;2022-08-02T04:44:38;18.30;99.90
21473;DHT22;10898;48.072;11.682;2022-08-02T04:46:40;18.30;99.90
21473;DHT22;10898;48.072;11.682;2022-08-02T04:48:42;18.30;99.90
21473;DHT22;10898;48.072;11.682;2022-08-02T04:50:43;18.30;99.90
21473;DHT22;10898;48.072;11.682;2022-08-02T04:52:45;18.30;99.90
21473;DHT22;10898;48.072;11.682;2022-08-02T04:54:47;18.40;99.90
21473;DHT22;10898;48.072;11.682;2022-08-02T04:56:49;18.40;99.90
21473;DHT22;10898;48.072;11.682;2022-08-02T04:58:50;18.40;99.90
21473;DHT22;10898;48.072;11.682;2022-08-02T05:00:52;18.40;99.90
21473;DHT22;10898;48.072;11.682;2022-08-02T05:02:54;18.40;99.90
21473;DHT22;10898;48.072;11.682;2022-08-02T05:04:56;18.40;99.90
21473;DHT22;10898;48.072;11.682;2022-08-02T05:06:58;18.50;99.90
21473;DHT22;10898;48.072;11.682;2022-08-02T05:09:00;18.50;99.90
21473;DHT22;10898;48.072;11.682;2022-08-02T05:11:02;18.50;99.90
21473;DHT22;10898;48.072;11.682;2022-08-02T05:13:04;18.50;99.90
21473;DHT22;10898;48.072;11.682;2022-08-02T05:15:06;18.50;99.90
21473;DHT22;10898;48.072;11.682;2022-08-02T05:17:13;18.50;99.90
21473;DHT22;10898;48.072;11.682;2022-08-02T05:19:15;18.60;99.90
21473;DHT22;10898;48.072;11.682;2022-08-02T05:21:16;18.60;99.90
21473;DHT22;10898;48.072;11.682;2022-08-02T05:23:18;18.60;99.90
21473;DHT22;10898;48.072;11.682;2022-08-02T05:25:20;18.70;99.90
21473;DHT22;10898;48.072;11.682;2022-08-02T05:27:22;18.60;99.90
21473;DHT22;10898;48.072;11.682;2022-08-02T05:29:24;18.70;99.90
21473;DHT22;10898;48.072;11.682;2022-08-02T05:31:25;18.70;99.90
21473;DHT22;10898;48.072;11.682;2022-08-02T05:33:27;18.70;99.90
21473;DHT22;10898;48.072;11.682;2022-08-02T05:35:29;18.80;99.90
21473;DHT22;10898;48.072;11.682;2022-08-02T05:37:31;18.80;99.90
21473;DHT22;10898;48.072;11.682;2022-08-02T05:39:35;18.80;99.90
21473;DHT22;10898;48.072;11.682;2022-08-02T05:41:56;18.80;99.90
21473;DHT22;10898;48.072;11.682;2022-08-02T05:43:58;18.80;99.90
21473;DHT22;10898;48.072;11.682;2022-08-02T05:45:59;18.90;99.90
21473;DHT22;10898;48.072;11.682;2022-08-02T05:48:01;18.90;99.90
21473;DHT22;10898;48.072;11.682;2022-08-02T05:50:05;18.90;99.90
21473;DHT22;10898;48.072;11.682;2022-08-02T05:52:17;18.90;99.90
21473;DHT22;10898;48.072;11.682;2022-08-02T05:54:22;19.00;99.90
21473;DHT22;10898;48.072;11.682;2022-08-02T05:56:32;19.00;99.90
21473;DHT22;10898;48.072;11.682;2022-08-02T05:58:35;19.00;99.90
21473;DHT22;10898;48.072;11.682;2022-08-02T06:00:39;19.10;99.90
21473;DHT22;10898;48.072;11.682;2022-08-02T06:04:55;19.20;99.90
21473;DHT22;10898;48.072;11.682;2022-08-02T06:07:00;19.20;99.90
21473;DHT22;10898;48.072;11.682;2022-08-02T06:09:08;19.30;99.90
21473;DHT22;10898;48.072;11.682;2022-08-02T06:11:11;19.30;99.90
21473;DHT22;10898;48.072;11.682;2022-08-02T06:13:13;19.40;99.90
21473;DHT22;10898;48.072;11.682;2022-08-02T06:15:17;19.40;99.90
21473;DHT22;10898;48.072;11.682;2022-08-02T06:17:19;19.50;99.90
21473;DHT22;10898;48.072;11.682;2022-08-02T06:19:21;19.50;99.90
21473;DHT22;10898;48.072;11.682;2022-08-02T06:21:25;19.60;99.90
21473;DHT22;10898;48.072;11.682;2022-08-02T06:23:47;19.60;99.90
21473;DHT22;10898;48.072;11.682;2022-08-02T06:25:59;19.70;99.90
21473;DHT22;10898;48.072;11.682;2022-08-02T06:28:03;19.70;99.90
21473;DHT22;10898;48.072;11.682;2022-08-02T06:30:12;19.80;99.90
21473;DHT22;10898;48.072;11.682;2022-08-02T06:32:17;19.80;99.90
21473;DHT22;10898;48.072;11.682;2022-08-02T06:34:19;19.80;99.90
21473;DHT22;10898;48.072;11.682;2022-08-02T06:36:25;19.90;99.90
21473;DHT22;10898;48.072;11.682;2022-08-02T06:38:31;20.00;99.90
21473;DHT22;10898;48.072;11.682;2022-08-02T06:40:35;20.00;99.90
21473;DHT22;10898;48.072;11.682;2022-08-02T06:42:51;20.00;99.90
21473;DHT22;10898;48.072;11.682;2022-08-02T06:44:53;20.10;99.90
21473;DHT22;10898;48.072;11.682;2022-08-02T06:46:58;20.20;99.90
21473;DHT22;10898;48.072;11.682;2022-08-02T06:49:13;20.20;99.90
21473;DHT22;10898;48.072;11.682;2022-08-02T06:51:15;20.20;99.90
21473;DHT22;10898;48.072;11.682;2022-08-02T06:53:17;20.30;99.90
21473;DHT22;10898;48.072;11.682;2022-08-02T06:55:19;20.40;99.90
21473;DHT22;10898;48.072;11.682;2022-08-02T06:57:20;20.40;99.90
21473;DHT22;10898;48.072;11.682;2022-08-02T06:59:22;20.50;99.90
21473;DHT22;10898;48.072;11.682;2022-08-02T07:01:24;20.50;99.90
21473;DHT22;10898;48.072;11.682;2022-08-02T07:03:26;20.50;99.90
21473;DHT22;10898;48.072;11.682;2022-08-02T07:05:27;20.60;99.90
21473;DHT22;10898;48.072;11.682;2022-08-02T07:07:29;20.60;99.90
21473;DHT22;10898;48.072;11.682;2022-08-02T07:09:31;20.70;99.90
21473;DHT22;10898;48.072;11.682;2022-08-02T07:11:33;20.70;99.90
21473;DHT22;10898;48.072;11.682;2022-08-02T07:13:34;20.80;99.90
21473;DHT22;10898;48.072;11.682;2022-08-02T07:15:40;20.90;99.90
21473;DHT22;10898;48.072;11.682;2022-08-02T07:17:49;20.90;99.90
21473;DHT22;10898;48.072;11.682;2022-08-02T07:19:51;21.00;99.90
21473;DHT22;10898;48.072;11.682;2022-08-02T07:21:53;21.00;99.90
21473;DHT22;10898;48.072;11.682;2022-08-02T07:24:01;21.10;99.90
21473;DHT22;10898;48.072;11.682;2022-08-02T07:26:02;21.20;99.90
21473;DHT22;10898;48.072;11.682;2022-08-02T07:28:07;21.20;99.90
21473;DHT22;10898;48.072;11.682;2022-08-02T07:30:19;21.30;99.90
21473;DHT22;10898;48.072;11.682;2022-08-02T07:32:21;21.40;99.90
21473;DHT22;10898;48.072;11.682;2022-08-02T07:34:23;21.40;99.90
21473;DHT22;10898;48.072;11.682;2022-08-02T07:36:25;21.50;99.90
21473;DHT22;10898;48.072;11.682;2022-08-02T07:38:27;21.50;99.90
21473;DHT22;10898;48.072;11.682;2022-08-02T07:40:28;21.50;99.90
21473;DHT22;10898;48.072;11.682;2022-08-02T07:42:30;21.60;99.90
21473;DHT22;10898;48.072;11.682;2022-08-02T07:44:32;21.60;99.90
21473;DHT22;10898;48.072;11.682;2022-08-02T07:46:37;21.60;99.90
21473;DHT22;10898;48.072;11.682;2022-08-02T07:48:38;21.70;99.90
21473;DHT22;10898;48.072;11.682;2022-08-02T07:50:40;21.70;99.90
21473;DHT22;10898;48.072;11.682;2022-08-02T07:52:42;21.70;99.90
21473;DHT22;10898;48.072;11.682;2022-08-02T07:54:45;21.80;99.90
21473;DHT22;10898;48.072;11.682;2022-08-02T07:56:47;21.80;99.90
21473;DHT22;10898;48.072;11.682;2022-08-02T07:58:57;21.90;99.90
21473;DHT22;10898;48.072;11.682;2022-08-02T08:00:59;22.00;99.90
21473;DHT22;10898;48.072;11.682;2022-08-02T08:03:01;22.00;99.90
21473;DHT22;10898;48.072;11.682;2022-08-02T08:05:03;22.00;99.90
21473;DHT22;10898;48.072;11.682;2022-08-02T08:07:05;22.00;99.90
21473;DHT22;10898;48.072;11.682;2022-08-02T08:09:10;22.00;99.90
21473;DHT22;10898;48.072;11.682;2022-08-02T08:11:12;22.10;99.90
21473;DHT22;10898;48.072;11.682;2022-08-02T08:13:14;22.20;99.90
21473;DHT22;10898;48.072;11.682;2022-08-02T08:15:16;22.30;99.90
21473;DHT22;10898;48.072;11.682;2022-08-02T08:17:17;22.30;99.90
21473;DHT22;10898;48.072;11.682;2022-08-02T08:19:19;22.40;99.90
21473;DHT22;10898;48.072;11.682;2022-08-02T08:21:41;22.40;99.90
21473;DHT22;10898;48.072;11.682;2022-08-02T08:23:43;22.50;99.90
21473;DHT22;10898;48.072;11.682;2022-08-02T08:25:44;22.50;99.90
21473;DHT22;10898;48.072;11.682;2022-08-02T08:27:51;22.50;99.90
21473;DHT22;10898;48.072;11.682;2022-08-02T08:29:52;22.60;99.90
21473;DHT22;10898;48.072;11.682;2022-08-02T08:31:54;22.70;99.90
21473;DHT22;10898;48.072;11.682;2022-08-02T08:33:56;22.70;99.90
21473;DHT22;10898;48.072;11.682;2022-08-02T08:35:58;22.80;99.50
21473;DHT22;10898;48.072;11.682;2022-08-02T08:38:03;22.80;99.90
21473;DHT22;10898;48.072;11.682;2022-08-02T08:40:08;22.80;99.80
21473;DHT22;10898;48.072;11.682;2022-08-02T08:42:10;22.90;99.90
21473;DHT22;10898;48.072;11.682;2022-08-02T08:44:12;22.90;99.90
21473;DHT22;10898;48.072;11.682;2022-08-02T08:46:17;23.00;99.90
21473;DHT22;10898;48.072;11.682;2022-08-02T08:48:21;23.00;99.80
21473;DHT22;10898;48.072;11.682;2022-08-02T08:50:32;23.10;99.60
21473;DHT22;10898;48.072;11.682;2022-08-02T08:52:39;23.10;99.00
21473;DHT22;10898;48.072;11.682;2022-08-02T08:54:42;23.10;97.80
21473;DHT22;10898;48.072;11.682;2022-08-02T08:56:48;23.20;97.80
21473;DHT22;10898;48.072;11.682;2022-08-02T08:58:51;23.20;96.80
21473;DHT22;10898;48.072;11.682;2022-08-02T09:00:53;23.20;96.40
21473;DHT22;10898;48.072;11.682;2022-08-02T09:02:55;23.20;96.50
21473;DHT22;10898;48.072;11.682;2022-08-02T09:04:57;23.20;96.70
21473;DHT22;10898;48.072;11.682;2022-08-02T09:06:58;23.30;97.60
21473;DHT22;10898;48.072;11.682;2022-08-02T09:09:00;23.30;97.50
21473;DHT22;10898;48.072;11.682;2022-08-02T09:11:08;23.40;97.60
21473;DHT22;10898;48.072;11.682;2022-08-02T09:13:25;23.50;97.90
21473;DHT22;10898;48.072;11.682;2022-08-02T09:15:56;23.50;96.60
21473;DHT22;10898;48.072;11.682;2022-08-02T09:17:58;23.70;96.80
21473;DHT22;10898;48.072;11.682;2022-08-02T09:20:06;23.70;95.30
21473;DHT22;10898;48.072;11.682;2022-08-02T09:22:10;23.80;95.30
21473;DHT22;10898;48.072;11.682;2022-08-02T09:24:16;23.80;95.20
21473;DHT22;10898;48.072;11.682;2022-08-02T09:26:19;23.90;95.30
21473;DHT22;10898;48.072;11.682;2022-08-02T09:28:24;23.90;95.30
21473;DHT22;10898;48.072;11.682;2022-08-02T09:30:26;24.00;94.40
21473;DHT22;10898;48.072;11.682;2022-08-02T09:32:30;24.00;94.40
21473;DHT22;10898;48.072;11.682;2022-08-02T09:36:45;24.10;95.10
21473;DHT22;10898;48.072;11.682;2022-08-02T09:39:01;24.20;94.30
21473;DHT22;10898;48.072;11.682;2022-08-02T09:41:03;24.30;93.20
21473;DHT22;10898;48.072;11.682;2022-08-02T09:43:06;24.40;93.40
21473;DHT22;10898;48.072;11.682;2022-08-02T09:45:08;24.40;93.00
21473;DHT22;10898;48.072;11.682;2022-08-02T09:47:14;24.50;92.80
21473;DHT22;10898;48.072;11.682;2022-08-02T09:49:17;24.60;92.10
21473;DHT22;10898;48.072;11.682;2022-08-02T09:53:25;24.70;91.60
21473;DHT22;10898;48.072;11.682;2022-08-02T09:55:26;24.70;90.80
21473;DHT22;10898;48.072;11.682;2022-08-02T09:57:28;24.60;90.80
21473;DHT22;10898;48.072;11.682;2022-08-02T09:59:30;24.60;91.20
21473;DHT22;10898;48.072;11.682;2022-08-02T10:01:32;24.60;91.30
21473;DHT22;10898;48.072;11.682;2022-08-02T10:03:51;24.80;91.10
21473;DHT22;10898;48.072;11.682;2022-08-02T10:05:54;24.80;90.30
21473;DHT22;10898;48.072;11.682;2022-08-02T10:08:03;24.80;90.80
21473;DHT22;10898;48.072;11.682;2022-08-02T10:10:05;24.90;90.30
21473;DHT22;10898;48.072;11.682;2022-08-02T10:12:07;25.00;90.80
21473;DHT22;10898;48.072;11.682;2022-08-02T10:14:10;25.10;89.60
21473;DHT22;10898;48.072;11.682;2022-08-02T10:16:11;25.20;89.90
21473;DHT22;10898;48.072;11.682;2022-08-02T10:18:14;25.20;89.10
21473;DHT22;10898;48.072;11.682;2022-08-02T10:20:40;25.20;89.60
21473;DHT22;10898;48.072;11.682;2022-08-02T10:22:43;25.30;89.80
21473;DHT22;10898;48.072;11.682;2022-08-02T10:24:45;25.40;87.30
21473;DHT22;10898;48.072;11.682;2022-08-02T10:26:49;25.50;85.90
21473;DHT22;10898;48.072;11.682;2022-08-02T10:28:51;25.40;85.30
21473;DHT22;10898;48.072;11.682;2022-08-02T10:30:54;25.30;87.60
21473;DHT22;10898;48.072;11.682;2022-08-02T10:32:57;25.30;86.20
21473;DHT22;10898;48.072;11.682;2022-08-02T10:35:03;25.30;85.20
21473;DHT22;10898;48.072;11.682;2022-08-02T10:37:27;25.40;84.00
21473;DHT22;10898;48.072;11.682;2022-08-02T10:39:39;25.40;85.80
21473;DHT22;10898;48.072;11.682;2022-08-02T10:41:42;25.50;85.90
21473;DHT22;10898;48.072;11.682;2022-08-02T10:43:46;25.60;83.20
21473;DHT22;10898;48.072;11.682;2022-08-02T10:45:48;25.70;83.70
21473;DHT22;10898;48.072;11.682;2022-08-02T10:47:58;25.80;81.30
21473;DHT22;10898;48.072;11.682;2022-08-02T10:50:03;25.80;83.10
21473;DHT22;10898;48.072;11.682;2022-08-02T10:52:05;25.80;83.70
21473;DHT22;10898;48.072;11.682;2022-08-02T10:54:07;25.80;83.60
21473;DHT22;10898;48.072;11.682;2022-08-02T10:56:09;25.80;83.10
21473;DHT22;10898;48.072;11.682;2022-08-02T10:58:15;25.70;82.00
21473;DHT22;10898;48.072;11.682;2022-08-02T11:02:59;25.60;82.80
21473;DHT22;10898;48.072;11.682;2022-08-02T11:07:12;25.50;83.40
21473;DHT22;10898;48.072;11.682;2022-08-02T11:09:26;25.60;82.40
21473;DHT22;10898;48.072;11.682;2022-08-02T11:11:33;25.70;82.60
21473;DHT22;10898;48.072;11.682;2022-08-02T11:13:58;25.80;83.00
21473;DHT22;10898;48.072;11.682;2022-08-02T11:18:01;26.10;83.80
21473;DHT22;10898;48.072;11.682;2022-08-02T11:22:12;26.30;82.40
21473;DHT22;10898;48.072;11.682;2022-08-02T11:24:27;26.30;79.10
21473;DHT22;10898;48.072;11.682;2022-08-02T11:28:31;26.30;77.70
21473;DHT22;10898;48.072;11.682;2022-08-02T11:30:33;26.20;79.10
21473;DHT22;10898;48.072;11.682;2022-08-02T11:32:35;26.10;77.60
21473;DHT22;10898;48.072;11.682;2022-08-02T11:34:37;26.00;78.40
21473;DHT22;10898;48.072;11.682;2022-08-02T11:36:43;25.90;78.00
21473;DHT22;10898;48.072;11.682;2022-08-02T11:38:45;25.90;79.00
21473;DHT22;10898;48.072;11.682;2022-08-02T11:40:47;25.90;78.00
21473;DHT22;10898;48.072;11.682;2022-08-02T11:42:49;25.90;79.50
21473;DHT22;10898;48.072;11.682;2022-08-02T11:44:51;25.90;79.60
21473;DHT22;10898;48.072;11.682;2022-08-02T11:47:00;25.90;81.00
21473;DHT22;10898;48.072;11.682;2022-08-02T11:49:15;25.90;80.70
21473;DHT22;10898;48.072;11.682;2022-08-02T11:51:17;26.00;77.90
21473;DHT22;10898;48.072;11.682;2022-08-02T11:53:19;26.10;78.00
21473;DHT22;10898;48.072;11.682;2022-08-02T11:55:30;26.20;78.90
21473;DHT22;10898;48.072;11.682;2022-08-02T11:57:32;26.30;78.90
21473;DHT22;10898;48.072;11.682;2022-08-02T11:59:55;26.40;78.00
21473;DHT22;10898;48.072;11.682;2022-08-02T12:01:57;26.60;76.50
21473;DHT22;10898;48.072;11.682;2022-08-02T12:03:59;26.60;76.80
21473;DHT22;10898;48.072;11.682;2022-08-02T12:06:02;26.80;76.50
21473;DHT22;10898;48.072;11.682;2022-08-02T12:08:17;26.90;76.50
21473;DHT22;10898;48.072;11.682;2022-08-02T12:10:23;27.00;76.10
21473;DHT22;10898;48.072;11.682;2022-08-02T12:12:25;27.10;74.40
21473;DHT22;10898;48.072;11.682;2022-08-02T12:14:27;27.20;76.50
21473;DHT22;10898;48.072;11.682;2022-08-02T12:16:32;27.30;74.50
21473;DHT22;10898;48.072;11.682;2022-08-02T12:18:52;27.40;71.30
21473;DHT22;10898;48.072;11.682;2022-08-02T12:21:24;27.60;71.80
21473;DHT22;10898;48.072;11.682;2022-08-02T12:23:26;27.70;71.00
21473;DHT22;10898;48.072;11.682;2022-08-02T12:25:28;27.80;68.60
21473;DHT22;10898;48.072;11.682;2022-08-02T12:27:36;27.90;68.90
21473;DHT22;10898;48.072;11.682;2022-08-02T12:29:38;28.00;68.10
21473;DHT22;10898;48.072;11.682;2022-08-02T12:32:00;28.00;68.50
21473;DHT22;10898;48.072;11.682;2022-08-02T12:34:02;28.10;66.40
21473;DHT22;10898;48.072;11.682;2022-08-02T12:36:15;28.20;68.60
21473;DHT22;10898;48.072;11.682;2022-08-02T12:38:17;28.30;68.10
21473;DHT22;10898;48.072;11.682;2022-08-02T12:42:25;28.40;66.50
21473;DHT22;10898;48.072;11.682;2022-08-02T12:44:27;28.50;68.70
21473;DHT22;10898;48.072;11.682;2022-08-02T12:46:29;28.60;66.40
21473;DHT22;10898;48.072;11.682;2022-08-02T12:48:42;28.70;67.40
21473;DHT22;10898;48.072;11.682;2022-08-02T12:51:19;28.70;64.90
21473;DHT22;10898;48.072;11.682;2022-08-02T12:53:20;28.70;66.90
21473;DHT22;10898;48.072;11.682;2022-08-02T12:55:31;28.80;65.00
21473;DHT22;10898;48.072;11.682;2022-08-02T12:58:00;28.90;64.00
21473;DHT22;10898;48.072;11.682;2022-08-02T13:00:02;28.90;64.00
21473;DHT22;10898;48.072;11.682;2022-08-02T13:02:05;29.00;66.20
21473;DHT22;10898;48.072;11.682;2022-08-02T13:04:08;29.10;64.60
21473;DHT22;10898;48.072;11.682;2022-08-02T13:06:15;29.10;61.70
21473;DHT22;10898;48.072;11.682;2022-08-02T13:08:37;29.20;64.20
21473;DHT22;10898;48.072;11.682;2022-08-02T13:10:39;29.30;63.70
21473;DHT22;10898;48.072;11.682;2022-08-02T13:12:40;29.50;64.50
21473;DHT22;10898;48.072;11.682;2022-08-02T13:14:42;29.60;63.40
21473;DHT22;10898;48.072;11.682;2022-08-02T13:16:44;29.70;62.20
21473;DHT22;10898;48.072;11.682;2022-08-02T13:18:46;29.80;62.20
21473;DHT22;10898;48.072;11.682;2022-08-02T13:20:48;30.00;63.30
21473;DHT22;10898;48.072;11.682;2022-08-02T13:22:50;30.10;63.50
21473;DHT22;10898;48.072;11.682;2022-08-02T13:24:54;30.20;61.60